createdAt,value
2019-03-13T00:12:01.173Z,3.13
2019-03-13T00:15:19.179Z,2.90
2019-03-13T00:18:00.668Z,2.80
2019-03-13T00:21:01.691Z,2.83
2019-03-13T00:24:40.917Z,3.03
2019-03-13T00:30:53.028Z,3.50
2019-03-13T00:34:01.959Z,2.87
2019-03-13T00:37:31.198Z,3.27
2019-03-13T00:44:27.335Z,3.13
2019-03-13T00:46:39.489Z,3.27
2019-03-13T00:50:07.446Z,3.13
2019-03-13T00:57:10.562Z,2.90
2019-03-13T01:06:26.130Z,3.10
2019-03-13T01:09:46.150Z,2.80
2019-03-13T01:13:03.265Z,3.10
2019-03-13T01:15:54.473Z,2.93
2019-03-13T01:19:05.224Z,2.70
2019-03-13T01:21:42.051Z,2.83
2019-03-13T01:28:12.928Z,2.50
2019-03-13T01:31:28.922Z,2.60
2019-03-13T01:34:45.206Z,2.50
2019-03-13T01:38:09.266Z,2.40
2019-03-13T01:40:49.435Z,2.47
2019-03-13T01:44:12.256Z,2.70
2019-03-13T01:47:21.059Z,2.80
2019-03-13T01:54:07.222Z,2.80
2019-03-13T01:56:58.978Z,2.53
2019-03-13T01:59:44.603Z,2.57
2019-03-13T02:02:40.970Z,2.50
2019-03-13T02:12:39.375Z,3.07
2019-03-13T02:19:21.530Z,2.53
2019-03-13T02:22:11.192Z,2.30
2019-03-13T02:25:45.687Z,3.00
2019-03-13T02:27:50.783Z,3.10
2019-03-13T02:30:41.154Z,2.97
2019-03-13T02:36:37.468Z,2.50
2019-03-13T02:39:38.769Z,2.87
2019-03-13T02:42:52.356Z,2.83
2019-03-13T02:45:59.463Z,2.93
2019-03-13T02:48:47.251Z,3.73
2019-03-13T02:52:18.372Z,3.00
2019-03-13T02:55:21.178Z,2.73
2019-03-13T02:58:18.618Z,2.73
2019-03-13T03:01:39.736Z,2.90
2019-03-13T03:04:55.432Z,3.03
2019-03-13T03:07:51.160Z,2.47
2019-03-13T03:10:29.525Z,2.40
2019-03-13T03:13:10.806Z,2.70
2019-03-13T03:16:15.293Z,3.03
2019-03-13T03:25:51.916Z,2.40
2019-03-13T03:29:11.903Z,2.80
2019-03-13T03:31:59.019Z,2.37
2019-03-13T03:34:51.560Z,3.10
2019-03-13T03:37:41.385Z,2.73
2019-03-13T03:40:49.442Z,3.20
2019-03-13T03:43:50.230Z,2.97
2019-03-13T03:46:44.075Z,2.93
2019-03-13T03:49:27.570Z,2.87
2019-03-13T03:52:25.940Z,2.63
2019-03-13T03:55:54.040Z,3.13
2019-03-13T03:58:56.957Z,3.00
2019-03-13T04:02:01.065Z,2.77
2019-03-13T04:05:00.825Z,2.87
2019-03-13T04:07:55.727Z,2.60
2019-03-13T04:11:12.390Z,3.10
2019-03-13T04:14:03.949Z,2.93
2019-03-13T04:17:30.950Z,2.80
2019-03-13T04:20:36.893Z,2.50
2019-03-13T04:23:22.917Z,3.07
2019-03-13T04:26:24.763Z,3.00
2019-03-13T04:32:53.372Z,2.93
2019-03-13T04:39:23.850Z,3.00
2019-03-13T04:42:53.800Z,2.90
2019-03-13T04:46:01.072Z,2.50
2019-03-13T04:49:57.163Z,2.90
2019-03-13T05:57:13.447Z,3.03
2019-03-13T06:06:02.961Z,2.70
2019-03-13T06:34:12.800Z,3.40
2019-03-13T07:34:48.798Z,4.00
2019-03-13T07:40:45.004Z,4.50
2019-03-13T08:31:20.580Z,3.50
2019-03-13T08:44:15.911Z,4.60
2019-03-13T08:50:43.539Z,4.20
2019-03-13T08:56:09.490Z,4.20
2019-03-13T09:03:30.023Z,4.77
2019-03-13T09:09:36.582Z,4.33
2019-03-13T09:12:50.518Z,4.20
2019-03-13T09:18:48.737Z,4.93
2019-03-13T09:22:03.298Z,4.70
2019-03-13T10:26:32.727Z,7.03
2019-03-13T10:36:37.277Z,6.17
2019-03-13T10:49:47.383Z,6.90
2019-03-13T11:09:48.914Z,7.93
2019-03-13T11:16:28.055Z,8.70
2019-03-13T11:19:39.088Z,7.33
2019-03-13T11:25:59.553Z,9.00
2019-03-13T11:29:44.863Z,8.67
2019-03-13T11:33:26.042Z,7.97
2019-03-13T11:39:57.311Z,9.13
2019-03-13T11:43:59.676Z,9.27
2019-03-13T11:53:31.130Z,8.87
2019-03-13T12:23:34.928Z,7.47
2019-03-13T12:32:59.917Z,6.33
2019-03-13T12:36:12.394Z,7.33
2019-03-13T12:46:55.942Z,7.27
2019-03-13T12:53:43.486Z,7.03
2019-03-13T12:57:13.611Z,7.03
2019-03-13T13:07:38.149Z,8.20
2019-03-13T13:10:43.764Z,8.47
2019-03-13T13:13:29.091Z,9.10
2019-03-13T13:16:31.196Z,8.77
2019-03-13T13:19:06.494Z,8.43
2019-03-13T13:34:40.134Z,8.57
2019-03-13T13:40:52.877Z,9.13
2019-03-13T13:45:19.109Z,9.60
2019-03-13T13:58:47.515Z,10.57
2019-03-13T14:02:17.853Z,9.80
2019-03-13T14:05:18.261Z,9.30
2019-03-13T14:08:08.510Z,10.20
2019-03-13T14:13:39.129Z,10.60
2019-03-13T14:55:30.887Z,8.10
2019-03-13T14:58:18.897Z,7.80
2019-03-13T15:12:16.722Z,10.30
2019-03-13T15:14:47.750Z,7.03
2019-03-13T15:17:21.518Z,6.20
2019-03-13T15:19:56.397Z,5.27
2019-03-13T15:22:30.963Z,6.10
2019-03-13T15:43:00.076Z,6.33
2019-03-13T15:45:31.163Z,6.87
2019-03-13T15:47:21.918Z,6.83
2019-03-13T15:50:19.505Z,6.87
2019-03-13T15:53:13.815Z,6.60
2019-03-13T15:56:04.070Z,7.27
2019-03-13T15:58:39.966Z,7.27
2019-03-13T16:01:18.111Z,7.20
2019-03-13T16:03:55.424Z,7.10
2019-03-13T16:06:32.253Z,7.17
2019-03-13T16:09:05.201Z,7.63
2019-03-13T16:11:45.524Z,8.30
2019-03-13T16:14:24.138Z,7.73
2019-03-13T16:20:19.131Z,7.90
2019-03-13T16:23:35.774Z,8.10
2019-03-13T16:26:14.869Z,7.80
2019-03-13T16:28:49.112Z,7.27
2019-03-13T16:31:27.171Z,7.10
2019-03-13T16:34:24.086Z,7.10
2019-03-13T16:36:59.842Z,7.47
2019-03-13T16:39:46.091Z,7.13
2019-03-13T16:42:39.885Z,7.60
2019-03-13T16:45:21.569Z,6.50
2019-03-13T16:47:59.519Z,6.67
2019-03-13T16:50:48.092Z,6.73
2019-03-13T16:54:04.567Z,6.40
2019-03-13T16:56:39.900Z,6.33
2019-03-13T16:59:10.622Z,5.87
2019-03-13T17:02:04.470Z,5.17
2019-03-13T17:05:04.061Z,5.70
2019-03-13T17:07:37.954Z,4.93
2019-03-13T17:10:15.235Z,4.70
2019-03-13T17:12:54.645Z,4.77
2019-03-13T17:16:02.266Z,5.20
2019-03-13T17:18:44.678Z,4.67
2019-03-13T17:21:22.814Z,4.77
2019-03-13T17:24:17.441Z,4.67
2019-03-13T17:27:00.580Z,5.27
2019-03-13T17:29:41.499Z,5.03
2019-03-13T17:32:51.375Z,5.37
2019-03-13T17:35:59.913Z,5.23
2019-03-13T17:39:12.311Z,4.67
2019-03-13T17:41:46.317Z,5.07
2019-03-13T17:44:49.984Z,5.47
2019-03-13T17:48:27.025Z,4.47
2019-03-13T17:50:54.276Z,4.70
2019-03-13T17:53:29.778Z,5.37
2019-03-13T17:56:23.334Z,5.70
2019-03-13T17:58:54.260Z,5.63
2019-03-13T18:01:24.717Z,6.13
2019-03-13T18:03:57.835Z,5.57
2019-03-13T18:06:31.665Z,5.40
2019-03-13T18:09:14.704Z,4.40
2019-03-13T18:11:54.420Z,5.27
2019-03-13T18:14:34.996Z,5.07
2019-03-13T18:17:08.224Z,5.87
2019-03-13T18:19:40.721Z,5.17
2019-03-13T18:22:23.385Z,6.57
2019-03-13T18:25:01.186Z,6.13
2019-03-13T18:28:32.115Z,6.13
2019-03-13T18:31:02.888Z,5.97
2019-03-13T18:33:48.088Z,5.60
2019-03-13T18:36:15.412Z,6.37
2019-03-13T18:39:00.783Z,6.13
2019-03-13T18:41:52.956Z,7.47
2019-03-13T18:44:38.108Z,6.40
2019-03-13T18:47:20.969Z,6.73
2019-03-13T18:49:58.787Z,6.40
2019-03-13T18:52:37.299Z,7.60
2019-03-13T18:55:10.871Z,7.90
2019-03-13T18:58:06.620Z,7.30
2019-03-13T19:00:45.853Z,7.73
2019-03-13T19:03:31.585Z,7.83
2019-03-13T19:06:26.289Z,8.20
2019-03-13T19:08:57.106Z,7.63
2019-03-13T19:11:34.774Z,7.50
2019-03-13T19:14:23.090Z,7.60
2019-03-13T19:17:08.007Z,8.00
2019-03-13T19:19:51.626Z,8.60
2019-03-13T19:22:43.070Z,8.70
2019-03-13T19:25:17.838Z,8.70
2019-03-13T19:27:51.563Z,9.20
2019-03-13T19:31:14.990Z,9.23
2019-03-13T19:33:22.546Z,9.20
2019-03-13T19:36:11.704Z,8.90
2019-03-13T19:38:33.016Z,9.80
2019-03-13T19:41:21.979Z,9.73
2019-03-13T19:44:13.777Z,10.23
2019-03-13T19:47:03.310Z,9.37
2019-03-13T19:50:10.596Z,10.57
2019-03-13T19:52:29.115Z,11.40
2019-03-13T19:55:05.395Z,10.10
2019-03-13T19:58:00.390Z,9.87
2019-03-13T20:03:16.831Z,10.40
2019-03-13T20:06:13.568Z,11.00
2019-03-13T20:09:07.907Z,9.37
2019-03-13T20:11:58.591Z,10.23
2019-03-13T20:14:43.204Z,10.37
2019-03-13T20:17:53.832Z,9.90
2019-03-13T20:20:06.637Z,10.60
2019-03-13T20:22:44.396Z,10.23
2019-03-13T20:25:19.479Z,9.80
2019-03-13T20:27:56.209Z,10.53
2019-03-13T20:30:28.584Z,10.63
2019-03-13T20:33:03.606Z,10.47
2019-03-13T20:35:37.594Z,11.03
2019-03-13T20:38:12.034Z,11.10
2019-03-13T20:40:52.141Z,11.60
2019-03-13T20:43:23.194Z,10.73
2019-03-13T20:46:04.879Z,10.93
2019-03-13T20:48:54.396Z,11.23
2019-03-13T20:52:09.777Z,11.43
2019-03-13T20:54:42.354Z,11.27
2019-03-13T20:57:31.962Z,10.30
2019-03-13T21:00:36.373Z,11.20
2019-03-13T21:02:48.181Z,10.93
2019-03-13T21:05:34.159Z,10.33
2019-03-13T21:17:33.608Z,11.07
2019-03-13T21:20:05.168Z,10.33
2019-03-13T21:22:40.234Z,10.33
2019-03-13T21:25:16.573Z,10.60
2019-03-13T21:27:48.621Z,11.13
2019-03-13T21:30:29.502Z,10.90
2019-03-13T21:33:12.945Z,12.13
2019-03-13T21:35:46.869Z,10.47
2019-03-13T21:38:27.795Z,10.07
2019-03-13T21:41:13.203Z,10.27
2019-03-13T21:44:14.044Z,11.83
2019-03-13T21:47:00.516Z,11.60
2019-03-13T21:49:56.781Z,10.67
2019-03-13T21:52:39.441Z,11.53
2019-03-13T21:55:17.559Z,11.80
2019-03-13T21:57:54.250Z,11.27
2019-03-13T22:00:44.901Z,10.33
2019-03-13T22:03:27.901Z,10.70
2019-03-13T22:05:50.949Z,11.53
2019-03-13T22:08:38.172Z,11.00
2019-03-13T22:11:49.680Z,11.33
2019-03-13T22:14:39.338Z,11.07
2019-03-13T22:17:10.675Z,11.47
2019-03-13T22:20:07.590Z,12.47
2019-03-13T22:22:52.383Z,10.43
2019-03-13T22:25:29.181Z,11.23
2019-03-13T22:28:08.240Z,10.70
2019-03-13T22:30:46.110Z,10.93
2019-03-13T22:33:18.511Z,10.43
2019-03-13T22:35:49.231Z,12.33
2019-03-13T22:38:21.107Z,12.23
2019-03-13T22:40:55.737Z,13.00
2019-03-13T22:43:28.652Z,11.33
2019-03-13T22:46:01.709Z,11.67
2019-03-13T22:48:34.314Z,12.03
2019-03-13T22:51:13.759Z,11.60
2019-03-13T22:53:52.337Z,11.27
2019-03-13T22:56:22.948Z,12.53
2019-03-13T22:58:53.718Z,12.17
2019-03-13T23:01:35.000Z,12.63
2019-03-13T23:04:05.919Z,12.47
2019-03-13T23:06:38.890Z,12.20
2019-03-13T23:09:23.405Z,11.03
2019-03-13T23:12:03.081Z,11.13
2019-03-13T23:14:35.443Z,10.60
2019-03-13T23:17:06.344Z,11.60
2019-03-13T23:19:36.951Z,11.23
2019-03-13T23:22:09.288Z,11.50
2019-03-13T23:24:39.899Z,10.47
2019-03-13T23:27:26.734Z,10.33
2019-03-13T23:29:57.374Z,10.97
2019-03-13T23:32:27.941Z,10.60
2019-03-13T23:35:07.290Z,10.37
2019-03-13T23:37:41.347Z,9.80
2019-03-13T23:40:22.056Z,10.10
2019-03-13T23:42:52.917Z,8.97
2019-03-13T23:45:25.017Z,8.93
2019-03-13T23:47:59.265Z,9.80
2019-03-13T23:50:29.761Z,10.00
2019-03-13T23:53:00.285Z,9.30
2019-03-13T23:55:32.764Z,9.33
2019-03-13T23:58:05.461Z,8.80
